Time;durP1;ratioP1;P1;durP2;ratioP2;P2;SDS_P1;SDS_P2;PMS_P1;PMS_P2;Temp;Humidity;BMP_temperature;BMP_pressure;BME280_temperature;BME280_humidity;BME280_pressure;Samples;Min_cycle;Max_cycle;Signal;HPM_P1;HPM_P2
2023/07/16 00:02:07;;;;;;;4.97;1.37;;;;;;;23.53;85.21;100254.75;5076027;28;20504;-74
2023/07/16 00:04:34;;;;;;;5.23;1.37;;;;;;;23.47;85.73;100248.03;5079657;28;20463;-74
2023/07/16 00:07:01;;;;;;;6.27;1.43;;;;;;;23.43;86.19;100242.50;5076289;28;20485;-74
2023/07/16 00:09:29;;;;;;;4.60;1.10;;;;;;;23.37;86.77;100246.84;5076409;28;20452;-74
2023/07/16 00:11:57;;;;;;;4.90;1.40;;;;;;;23.31;86.90;100238.16;5079384;28;20487;-73
2023/07/16 00:14:24;;;;;;;4.97;1.33;;;;;;;23.25;87.38;100227.94;5075988;28;20551;-74
2023/07/16 00:16:51;;;;;;;4.50;1.10;;;;;;;23.22;87.82;100223.19;5074870;28;20497;-74
2023/07/16 00:19:17;;;;;;;5.10;1.40;;;;;;;23.14;88.07;100217.66;5076031;28;20441;-74
2023/07/16 00:21:44;;;;;;;4.80;1.10;;;;;;;23.08;88.19;100226.75;5080675;28;20518;-75
2023/07/16 00:24:10;;;;;;;4.90;1.30;;;;;;;23.01;88.92;100235.81;5095397;28;20843;-77
2023/07/16 00:26:38;;;;;;;4.80;1.30;;;;;;;22.95;89.58;100237.38;5078330;28;20468;-76
2023/07/16 00:29:05;;;;;;;4.80;1.17;;;;;;;22.95;90.13;100247.66;5081385;28;20972;-76
2023/07/16 00:31:32;;;;;;;5.37;1.30;;;;;;;22.95;90.03;100248.44;5077459;28;20572;-76
2023/07/16 00:33:58;;;;;;;4.93;1.17;;;;;;;22.95;90.61;100267.00;5075599;28;20465;-76
2023/07/16 00:36:25;;;;;;;5.77;1.57;;;;;;;22.97;90.48;100272.91;5076341;28;21162;-76
2023/07/16 00:38:52;;;;;;;5.53;1.60;;;;;;;22.95;90.37;100272.50;5074407;28;20457;-76
2023/07/16 00:41:18;;;;;;;5.37;1.70;;;;;;;22.90;90.37;100268.16;5075702;28;20512;-76
2023/07/16 00:43:47;;;;;;;5.50;1.77;;;;;;;22.90;90.12;100290.28;5075693;28;20517;-76
2023/07/16 00:46:13;;;;;;;5.03;1.13;;;;;;;22.91;89.90;100308.41;5077764;28;20497;-76
2023/07/16 00:48:41;;;;;;;5.47;1.80;;;;;;;22.90;89.95;100324.19;5074091;28;20898;-76
2023/07/16 00:51:08;;;;;;;5.27;1.63;;;;;;;22.94;90.07;100335.25;5074856;28;20947;-77
2023/07/16 00:53:35;;;;;;;5.30;1.80;;;;;;;22.99;89.97;100348.69;5075949;28;20533;-77
2023/07/16 00:56:01;;;;;;;5.40;1.70;;;;;;;23.05;88.88;100352.66;5075990;28;20453;-76
2023/07/16 00:58:28;;;;;;;5.37;1.73;;;;;;;23.09;89.03;100363.72;5085750;28;20456;-77
2023/07/16 01:00:56;;;;;;;5.57;1.40;;;;;;;23.17;87.89;100381.88;5077504;28;21052;-75
2023/07/16 01:03:22;;;;;;;6.07;2.30;;;;;;;23.15;87.73;100398.88;5064872;28;20517;-74
2023/07/16 01:05:56;;;;;;;5.00;1.63;;;;;;;23.27;86.28;100405.19;5076381;28;20502;-74
2023/07/16 01:08:36;;;;;;;5.20;1.70;;;;;;;23.33;87.00;100428.50;5074443;28;20481;-75
2023/07/16 01:11:05;;;;;;;5.60;1.83;;;;;;;23.40;85.99;100443.13;5074823;28;20548;-76
2023/07/16 01:13:32;;;;;;;5.40;1.50;;;;;;;23.39;86.08;100438.78;5074274;28;20496;-75
2023/07/16 01:16:00;;;;;;;5.40;1.70;;;;;;;23.44;86.31;100442.34;5074707;28;20890;-76
2023/07/16 01:18:27;;;;;;;6.37;1.90;;;;;;;23.39;88.41;100473.94;5077327;28;20488;-75
2023/07/16 01:20:54;;;;;;;7.40;2.33;;;;;;;23.24;91.81;100494.41;5074807;28;20519;-75
2023/07/16 01:24:11;;;;;;;6.20;2.27;;;;;;;22.89;96.10;100488.38;5074916;28;20579;-75
2023/07/16 01:27:01;;;;;;;6.83;1.97;;;;;;;22.57;100.00;100487.34;5022444;28;20500;-74
2023/07/16 01:29:34;;;;;;;7.80;2.20;;;;;;;22.41;100.00;100507.78;5073309;28;20484;-74
2023/07/16 01:32:03;;;;;;;6.23;2.10;;;;;;;22.28;100.00;100519.50;5074650;28;20536;-74
2023/07/16 01:34:34;;;;;;;5.53;1.83;;;;;;;22.12;100.00;100541.81;5077356;28;20450;-75
2023/07/16 01:37:01;;;;;;;5.77;2.00;;;;;;;21.98;100.00;100545.22;5071060;28;20460;-73
2023/07/16 01:39:28;;;;;;;6.30;2.00;;;;;;;21.97;100.00;100542.84;5074256;28;20922;-75
2023/07/16 01:41:55;;;;;;;8.13;2.60;;;;;;;21.96;100.00;100544.00;5074244;28;20496;-74
2023/07/16 01:44:21;;;;;;;7.37;2.07;;;;;;;21.89;100.00;100540.00;5076122;28;20543;-75
2023/07/16 01:47:04;;;;;;;7.00;2.10;;;;;;;21.87;100.00;100539.59;5073190;28;20489;-74
2023/07/16 01:49:31;;;;;;;6.10;2.10;;;;;;;21.88;100.00;100543.94;5074167;28;20911;-75
2023/07/16 01:51:58;;;;;;;6.60;2.60;;;;;;;21.87;100.00;100545.13;5077135;28;20891;-75
2023/07/16 01:54:24;;;;;;;6.03;2.00;;;;;;;21.89;100.00;100551.03;5073099;28;20442;-74
2023/07/16 01:56:51;;;;;;;5.90;2.20;;;;;;;21.91;100.00;100569.97;5073772;28;20457;-74
2023/07/16 01:59:18;;;;;;;6.33;2.23;;;;;;;21.91;100.00;100561.69;5073121;28;20958;-75
2023/07/16 02:01:44;;;;;;;5.80;2.00;;;;;;;21.92;100.00;100571.56;5073800;28;20986;-74
2023/07/16 02:04:12;;;;;;;6.93;2.37;;;;;;;21.88;100.00;100568.75;5073263;28;20998;-75
2023/07/16 02:06:39;;;;;;;6.40;2.53;;;;;;;21.85;100.00;100560.44;5077586;28;20548;-76
2023/07/16 02:09:05;;;;;;;6.00;2.53;;;;;;;21.81;100.00;100568.69;5061252;28;20450;-75
2023/07/16 02:11:32;;;;;;;6.60;2.10;;;;;;;21.81;100.00;100557.66;5089647;28;20491;-75
2023/07/16 02:13:58;;;;;;;13.40;2.20;;;;;;;21.84;100.00;100575.41;5073425;28;20465;-75
2023/07/16 02:16:25;;;;;;;6.33;2.20;;;;;;;21.85;100.00;100575.03;5073657;28;20484;-75
2023/07/16 02:18:52;;;;;;;5.87;1.67;;;;;;;21.86;100.00;100575.81;5073916;28;20441;-75
2023/07/16 02:21:20;;;;;;;7.03;1.80;;;;;;;21.72;100.00;100567.41;5073002;28;20906;-74
2023/07/16 02:23:46;;;;;;;8.10;2.20;;;;;;;21.53;100.00;100544.34;5075095;28;20489;-72
2023/07/16 02:26:13;;;;;;;6.40;2.03;;;;;;;21.38;100.00;100540.66;5076945;28;20583;-73
2023/07/16 02:28:40;;;;;;;6.30;1.70;;;;;;;21.24;100.00;100536.88;5072329;28;20448;-73
2023/07/16 02:31:06;;;;;;;6.00;1.83;;;;;;;21.09;100.00;100541.41;5073557;28;20469;-73
2023/07/16 02:33:33;;;;;;;6.07;1.87;;;;;;;20.99;100.00;100534.59;5075129;28;20552;-74
2023/07/16 02:36:00;;;;;;;6.80;1.43;;;;;;;20.94;100.00;100509.31;5073042;28;20465;-74
2023/07/16 02:38:29;;;;;;;5.87;1.47;;;;;;;20.81;100.00;100489.53;5073306;28;20437;-74
2023/07/16 02:40:55;;;;;;;6.03;1.63;;;;;;;20.71;100.00;100501.94;5072598;28;20512;-75
2023/07/16 02:43:22;;;;;;;6.43;2.17;;;;;;;20.69;100.00;100509.00;5075152;28;20486;-74
2023/07/16 02:45:48;;;;;;;5.40;1.30;;;;;;;20.62;100.00;100509.69;5073473;28;20445;-73
2023/07/16 02:48:15;;;;;;;7.13;1.30;;;;;;;20.58;100.00;100514.34;5073440;28;20476;-74
2023/07/16 02:50:42;;;;;;;12.60;2.17;;;;;;;20.56;100.00;100525.72;5075020;28;20568;-74
2023/07/16 02:53:09;;;;;;;5.30;1.43;;;;;;;20.60;100.00;100521.06;5072503;28;21018;-74
2023/07/16 02:55:37;;;;;;;6.93;1.83;;;;;;;20.69;100.00;100520.81;5073166;28;20469;-72
2023/07/16 02:58:04;;;;;;;6.63;2.13;;;;;;;20.72;100.00;100525.56;5076130;28;20560;-74
2023/07/16 03:00:31;;;;;;;5.40;1.70;;;;;;;20.72;100.00;100528.31;5076347;28;20832;-73
2023/07/16 03:02:58;;;;;;;5.20;1.40;;;;;;;20.74;100.00;100530.69;5072064;28;20572;-75
2023/07/16 03:05:25;;;;;;;7.93;1.80;;;;;;;20.72;100.00;100527.50;5072420;28;20465;-73
2023/07/16 03:07:51;;;;;;;7.17;2.20;;;;;;;20.77;100.00;100522.50;5073928;28;20560;-73
2023/07/16 03:10:18;;;;;;;6.90;2.10;;;;;;;20.80;100.00;100518.19;5072339;28;20437;-73
2023/07/16 03:12:46;;;;;;;6.10;2.00;;;;;;;20.79;100.00;100516.59;5072544;28;20509;-74
2023/07/16 03:15:13;;;;;;;6.50;2.30;;;;;;;20.78;100.00;100499.31;5073095;28;20795;-74
2023/07/16 03:17:39;;;;;;;5.80;1.77;;;;;;;20.83;100.00;100470.66;5076124;28;20560;-73
2023/07/16 03:20:07;;;;;;;5.40;1.77;;;;;;;20.88;100.00;100475.81;5071467;28;20469;-73
2023/07/16 03:22:34;;;;;;;6.03;1.73;;;;;;;20.89;100.00;100478.22;5072594;28;20978;-73
2023/07/16 03:25:02;;;;;;;11.97;2.10;;;;;;;20.92;100.00;100474.69;5072713;28;20499;-73
2023/07/16 03:27:29;;;;;;;7.67;2.00;;;;;;;20.94;100.00;100506.56;5073730;28;20793;-77
2023/07/16 03:29:57;;;;;;;5.90;1.80;;;;;;;20.93;100.00;100508.53;5074948;28;20475;-72
2023/07/16 03:32:23;;;;;;;6.40;1.83;;;;;;;20.89;100.00;100508.50;5072093;28;20481;-73
2023/07/16 03:34:50;;;;;;;7.93;2.20;;;;;;;20.86;100.00;100505.72;5076233;28;20466;-72
2023/07/16 03:37:16;;;;;;;6.17;1.70;;;;;;;20.89;100.00;100494.75;5087769;28;20460;-73
2023/07/16 03:39:43;;;;;;;5.80;2.00;;;;;;;20.87;100.00;100491.56;5093087;28;20519;-72
2023/07/16 03:42:10;;;;;;;6.30;1.73;;;;;;;20.91;100.00;100533.72;5083133;28;20571;-72
2023/07/16 03:44:36;;;;;;;6.83;2.30;;;;;;;20.92;100.00;100546.31;5071876;28;20569;-72
2023/07/16 03:47:05;;;;;;;8.00;2.53;;;;;;;20.91;100.00;100550.22;5072823;28;20441;-72
2023/07/16 03:49:31;;;;;;;8.00;2.23;;;;;;;20.96;100.00;100531.78;5072420;28;20469;-73
2023/07/16 03:51:58;;;;;;;6.87;2.60;;;;;;;20.97;100.00;100527.88;5074277;28;21021;-72
2023/07/16 03:54:24;;;;;;;6.00;1.80;;;;;;;20.99;100.00;100528.31;5072625;28;20553;-72
2023/07/16 03:56:51;;;;;;;6.67;2.07;;;;;;;20.97;100.00;100523.16;5071916;28;21176;-72
2023/07/16 03:59:17;;;;;;;6.03;1.73;;;;;;;21.00;100.00;100549.97;5073655;28;20462;-72
2023/07/16 04:01:44;;;;;;;6.00;1.90;;;;;;;21.04;100.00;100555.53;5072548;28;20560;-72
2023/07/16 04:04:12;;;;;;;12.47;2.03;;;;;;;21.06;100.00;100542.16;5072577;28;20516;-73
2023/07/16 04:06:39;;;;;;;4.83;1.03;;;;;;;21.01;100.00;100531.47;5071954;28;20445;-73
2023/07/16 04:09:05;;;;;;;8.97;2.20;;;;;;;21.00;100.00;100525.16;5076184;28;20488;-73
2023/07/16 04:11:32;;;;;;;5.93;1.53;;;;;;;20.98;100.00;100507.41;5072424;28;20457;-73
2023/07/16 04:13:58;;;;;;;8.30;2.30;;;;;;;20.97;100.00;100520.41;5075587;28;20481;-73
2023/07/16 04:16:25;;;;;;;6.00;2.20;;;;;;;21.01;100.00;100512.19;5072236;28;21011;-72
2023/07/16 04:18:52;;;;;;;8.23;2.07;;;;;;;21.03;100.00;100504.34;5071904;28;20514;-73
2023/07/16 04:21:20;;;;;;;6.73;2.47;;;;;;;21.04;100.00;100517.75;5072152;28;20489;-73
2023/07/16 04:23:46;;;;;;;6.13;2.20;;;;;;;21.02;100.00;100530.28;5077320;28;20659;-73
2023/07/16 04:26:13;;;;;;;6.87;2.30;;;;;;;21.02;100.00;100533.06;5075198;28;20467;-73
2023/07/16 04:28:40;;;;;;;6.30;1.77;;;;;;;21.00;100.00;100535.41;5075075;28;20457;-72
2023/07/16 04:31:06;;;;;;;7.47;1.93;;;;;;;21.01;100.00;100531.47;5078435;28;20474;-73
2023/07/16 04:33:33;;;;;;;5.80;1.80;;;;;;;21.01;100.00;100542.47;5075969;28;20851;-73
2023/07/16 04:36:00;;;;;;;6.43;1.97;;;;;;;20.99;100.00;100548.38;5075386;28;20540;-73
2023/07/16 04:38:27;;;;;;;6.70;2.00;;;;;;;21.00;100.00;100552.72;5075843;28;20532;-72
2023/07/16 04:40:54;;;;;;;5.57;1.50;;;;;;;20.99;100.00;100542.06;5077233;28;20505;-73
2023/07/16 04:43:21;;;;;;;5.83;1.67;;;;;;;20.96;100.00;100556.59;5075219;28;20520;-73
2023/07/16 04:45:47;;;;;;;6.80;1.90;;;;;;;21.01;100.00;100586.56;5074807;28;20577;-72
2023/07/16 04:48:14;;;;;;;6.20;1.83;;;;;;;20.98;100.00;100582.56;5078309;28;20477;-72
2023/07/16 04:50:40;;;;;;;7.20;1.87;;;;;;;20.99;100.00;100589.69;5075407;28;20488;-72
2023/07/16 04:53:07;;;;;;;7.00;2.03;;;;;;;21.01;100.00;100584.59;5075632;28;20513;-72
2023/07/16 04:55:37;;;;;;;6.07;1.60;;;;;;;21.05;100.00;100587.41;5075524;28;20521;-72
2023/07/16 04:58:04;;;;;;;7.50;2.40;;;;;;;21.09;100.00;100588.25;5076679;28;20465;-71
2023/07/16 05:00:32;;;;;;;6.47;1.80;;;;;;;21.11;100.00;100594.16;5075310;28;20484;-72
2023/07/16 05:02:59;;;;;;;6.87;1.77;;;;;;;21.14;100.00;100608.00;5074848;28;20441;-71
2023/07/16 05:05:26;;;;;;;5.80;1.60;;;;;;;21.19;100.00;100609.63;5088078;28;20797;-77
2023/07/16 05:07:52;;;;;;;6.03;1.60;;;;;;;21.20;100.00;100602.94;5097604;28;20468;-78
2023/07/16 05:10:19;;;;;;;6.80;2.17;;;;;;;21.22;100.00;100608.09;5097189;28;20447;-77
2023/07/16 05:12:47;;;;;;;5.97;1.50;;;;;;;21.22;100.00;100621.88;5087122;28;20934;-73
2023/07/16 05:15:14;;;;;;;7.60;2.30;;;;;;;21.19;100.00;100620.66;5074349;28;20548;-75
2023/07/16 05:17:40;;;;;;;7.60;2.30;;;;;;;21.19;100.00;100617.91;5075081;28;20441;-75
2023/07/16 05:20:08;;;;;;;7.30;1.90;;;;;;;21.15;100.00;100615.09;5074692;28;20494;-73
2023/07/16 05:22:35;;;;;;;6.50;1.93;;;;;;;21.16;100.00;100627.72;5081432;28;20468;-74
2023/07/16 05:25:02;;;;;;;5.93;1.87;;;;;;;21.20;100.00;100641.50;5076301;28;20929;-74
2023/07/16 05:27:29;;;;;;;6.43;1.93;;;;;;;21.27;100.00;100638.88;5073975;28;20461;-74
2023/07/16 05:29:57;;;;;;;7.13;2.10;;;;;;;21.32;100.00;100640.53;5075150;28;20445;-74
2023/07/16 05:32:23;;;;;;;7.70;2.00;;;;;;;21.34;100.00;100639.00;5075733;28;20555;-73
2023/07/16 05:34:50;;;;;;;6.30;2.10;;;;;;;21.29;100.00;100631.00;5074060;28;20533;-73
2023/07/16 05:37:17;;;;;;;6.30;2.40;;;;;;;21.26;100.00;100640.03;5074311;28;20449;-74
2023/07/16 05:39:44;;;;;;;6.03;1.97;;;;;;;21.27;100.00;100638.88;5077269;28;20531;-73
2023/07/16 05:42:10;;;;;;;6.60;1.73;;;;;;;21.26;100.00;100642.00;5075073;28;20477;-73
2023/07/16 05:44:37;;;;;;;9.70;2.43;;;;;;;21.24;100.00;100639.59;5076752;28;20564;-73
2023/07/16 05:47:06;;;;;;;8.67;2.07;;;;;;;21.29;100.00;100642.03;5073682;28;20493;-73
2023/07/16 05:49:33;;;;;;;6.77;2.20;;;;;;;21.32;100.00;100646.06;5074294;28;20891;-74
2023/07/16 05:51:59;;;;;;;5.60;1.70;;;;;;;21.37;100.00;100646.50;5074145;28;20577;-74
2023/07/16 05:54:26;;;;;;;6.50;1.80;;;;;;;21.42;100.00;100645.41;5075355;28;20471;-72
2023/07/16 05:56:53;;;;;;;5.90;2.13;;;;;;;21.50;100.00;100644.31;5075845;28;20449;-73
2023/07/16 05:59:19;;;;;;;5.93;1.70;;;;;;;21.55;100.00;100646.75;5074024;28;20441;-74
2023/07/16 06:01:46;;;;;;;7.30;2.37;;;;;;;21.62;100.00;100654.34;5075534;28;20503;-74
2023/07/16 06:04:14;;;;;;;5.87;1.63;;;;;;;21.67;100.00;100654.78;5073432;28;20489;-74
2023/07/16 06:06:41;;;;;;;5.60;1.70;;;;;;;21.74;100.00;100650.56;5073290;28;20463;-73
2023/07/16 06:09:07;;;;;;;6.17;2.17;;;;;;;21.80;100.00;100649.84;5074201;28;20635;-74
2023/07/16 06:11:34;;;;;;;11.80;2.10;;;;;;;21.89;100.00;100653.09;5074962;28;20503;-73
2023/07/16 06:14:01;;;;;;;5.77;1.97;;;;;;;22.00;100.00;100641.38;5074968;28;20452;-74
2023/07/16 06:16:27;;;;;;;6.90;2.70;;;;;;;22.02;100.00;100636.28;5074220;28;20868;-74
2023/07/16 06:18:54;;;;;;;8.30;2.17;;;;;;;22.07;100.00;100646.97;5073748;28;20443;-73
2023/07/16 06:21:22;;;;;;;6.20;2.00;;;;;;;22.16;100.00;100645.53;5075776;28;20487;-73
2023/07/16 06:23:48;;;;;;;6.70;1.77;;;;;;;22.22;100.00;100648.75;5073285;28;20516;-74
2023/07/16 06:26:15;;;;;;;9.73;2.07;;;;;;;22.30;100.00;100658.69;5073063;28;20461;-74
2023/07/16 06:28:41;;;;;;;5.70;1.80;;;;;;;22.39;100.00;100663.91;5075943;28;20556;-73
2023/07/16 06:31:08;;;;;;;7.40;1.97;;;;;;;22.46;100.00;100665.94;5074044;28;20477;-74
2023/07/16 06:33:35;;;;;;;6.37;1.83;;;;;;;22.49;100.00;100662.41;5073794;28;20445;-73
2023/07/16 06:36:01;;;;;;;6.60;1.90;;;;;;;22.61;100.00;100671.19;5073762;28;20469;-74
2023/07/16 06:38:30;;;;;;;6.03;2.13;;;;;;;22.70;100.00;100681.13;5073447;28;20446;-74
2023/07/16 06:40:56;;;;;;;5.70;1.70;;;;;;;22.75;100.00;100687.09;5074538;28;20480;-71
2023/07/16 06:43:23;;;;;;;6.47;1.90;;;;;;;22.87;99.89;100684.06;5073191;28;20548;-76
2023/07/16 06:45:51;;;;;;;5.57;1.33;;;;;;;22.93;100.00;100681.75;5075580;28;20564;-74
2023/07/16 06:48:17;;;;;;;5.97;1.83;;;;;;;23.07;99.74;100683.84;5071828;28;20437;-75
2023/07/16 06:50:44;;;;;;;6.37;2.00;;;;;;;23.06;99.40;100679.47;5073080;28;20488;-74
2023/07/16 06:53:11;;;;;;;5.73;2.00;;;;;;;23.16;98.97;100684.31;5073484;28;20433;-74
2023/07/16 06:55:39;;;;;;;5.83;1.70;;;;;;;23.22;96.19;100684.75;5075075;28;20479;-74
2023/07/16 06:58:05;;;;;;;5.10;1.50;;;;;;;23.25;96.26;100687.53;5072788;28;20457;-75
2023/07/16 07:00:32;;;;;;;5.90;1.83;;;;;;;23.34;97.66;100690.75;5072522;28;20969;-75
2023/07/16 07:02:59;;;;;;;6.00;1.80;;;;;;;23.48;95.37;100700.31;5075754;28;20453;-74
2023/07/16 07:05:26;;;;;;;8.20;1.93;;;;;;;23.64;95.75;100698.00;5072356;28;20485;-74
2023/07/16 07:07:52;;;;;;;5.73;1.83;;;;;;;23.83;93.98;100700.53;5072747;28;20464;-74
2023/07/16 07:10:19;;;;;;;5.10;1.30;;;;;;;23.91;93.60;100698.59;5072413;28;20532;-74
2023/07/16 07:12:47;;;;;;;5.97;1.63;;;;;;;23.97;92.26;100704.53;5070968;28;20559;-74
2023/07/16 07:15:14;;;;;;;5.47;1.53;;;;;;;24.04;91.00;100710.06;5073190;28;20442;-74
2023/07/16 07:17:42;;;;;;;5.53;1.63;;;;;;;24.10;91.08;100719.59;5074807;28;20468;-74
2023/07/16 07:20:10;;;;;;;5.77;1.53;;;;;;;24.08;88.42;100711.69;5076260;28;20456;-73
2023/07/16 07:22:37;;;;;;;6.73;1.80;;;;;;;23.99;88.86;100721.53;5071058;28;20931;-74
2023/07/16 07:25:04;;;;;;;6.17;1.97;;;;;;;23.92;88.93;100714.78;5072839;28;20588;-74
2023/07/16 07:27:31;;;;;;;7.27;1.70;;;;;;;23.95;90.26;100715.19;5076259;28;20460;-74
2023/07/16 07:29:59;;;;;;;6.23;1.50;;;;;;;23.96;90.31;100727.84;5075853;28;20468;-75
2023/07/16 07:32:25;;;;;;;5.40;1.53;;;;;;;23.99;88.29;100730.63;5071630;28;20468;-74
2023/07/16 07:34:52;;;;;;;5.53;1.43;;;;;;;24.00;87.78;100736.97;5073037;28;20536;-72
2023/07/16 07:37:19;;;;;;;5.97;1.87;;;;;;;24.00;87.48;100742.50;5073767;28;20574;-75
2023/07/16 07:39:47;;;;;;;6.10;1.50;;;;;;;23.99;86.42;100738.91;5072317;28;20493;-75
2023/07/16 07:42:14;;;;;;;5.03;1.40;;;;;;;24.05;83.82;100753.97;5072802;28;20813;-74
2023/07/16 07:44:40;;;;;;;5.60;1.43;;;;;;;24.12;82.59;100747.66;5072939;28;21058;-74
2023/07/16 07:47:09;;;;;;;5.27;1.60;;;;;;;24.18;83.18;100746.13;5076134;28;20551;-74
2023/07/16 07:49:35;;;;;;;5.27;1.10;;;;;;;24.29;80.97;100755.25;5073696;28;20512;-74
2023/07/16 07:52:02;;;;;;;5.10;1.50;;;;;;;24.25;80.24;100753.66;5072226;28;20534;-74
2023/07/16 07:54:29;;;;;;;5.50;1.40;;;;;;;24.21;82.23;100756.41;5072260;28;20833;-74
2023/07/16 07:56:55;;;;;;;5.90;1.40;;;;;;;24.09;80.49;100765.06;5073044;28;20484;-74
2023/07/16 07:59:22;;;;;;;5.53;1.40;;;;;;;24.29;81.18;100757.22;5076783;28;20475;-75
2023/07/16 08:01:49;;;;;;;6.23;1.53;;;;;;;24.40;82.02;100755.34;5078165;28;20559;-75
2023/07/16 08:04:17;;;;;;;5.50;1.87;;;;;;;24.42;77.90;100753.75;5077614;28;20570;-75
2023/07/16 08:06:43;;;;;;;5.60;1.33;;;;;;;24.46;77.69;100750.19;5077058;28;20546;-74
2023/07/16 08:09:10;;;;;;;5.17;1.57;;;;;;;24.49;78.38;100763.28;5075971;28;20444;-76
2023/07/16 08:11:37;;;;;;;5.77;1.40;;;;;;;24.61;73.37;100768.41;5074860;28;20476;-76
2023/07/16 08:14:03;;;;;;;5.53;1.63;;;;;;;24.69;74.63;100770.03;5075199;28;20469;-77
2023/07/16 08:16:30;;;;;;;5.97;1.27;;;;;;;24.70;76.22;100774.38;5075846;28;20471;-76
2023/07/16 08:18:56;;;;;;;9.70;1.83;;;;;;;24.81;75.68;100764.13;5075936;28;20888;-76
2023/07/16 08:21:24;;;;;;;5.23;1.40;;;;;;;24.89;69.35;100771.25;5078302;28;20531;-75
2023/07/16 08:23:51;;;;;;;5.23;1.30;;;;;;;24.97;68.02;100782.34;5076557;28;20528;-75
2023/07/16 08:26:18;;;;;;;6.70;1.03;;;;;;;24.98;67.90;100783.94;5076005;28;20485;-74
2023/07/16 08:28:45;;;;;;;4.93;1.13;;;;;;;24.96;69.94;100791.84;5076053;28;20442;-74
2023/07/16 08:31:12;;;;;;;4.80;1.20;;;;;;;24.92;69.61;100789.06;5077636;28;21025;-74
2023/07/16 08:33:39;;;;;;;4.87;1.30;;;;;;;24.98;71.06;100784.72;5076591;28;20473;-75
2023/07/16 08:36:06;;;;;;;5.53;1.73;;;;;;;25.03;71.57;100778.78;5075839;28;20524;-74
2023/07/16 08:38:34;;;;;;;5.77;1.60;;;;;;;25.32;70.37;100782.41;5078034;28;20523;-74
2023/07/16 08:41:01;;;;;;;5.13;1.33;;;;;;;25.55;65.23;100795.06;5076447;28;20492;-74
2023/07/16 08:43:29;;;;;;;5.10;1.40;;;;;;;25.42;63.57;100803.78;5079680;28;20840;-73
2023/07/16 08:45:56;;;;;;;5.87;1.37;;;;;;;25.41;64.25;100804.16;5077988;28;20477;-74
2023/07/16 08:48:23;;;;;;;5.10;1.50;;;;;;;25.44;65.74;100795.06;5073771;28;20548;-73
2023/07/16 08:50:51;;;;;;;4.70;1.33;;;;;;;25.35;65.65;100798.22;5074415;28;20482;-74
2023/07/16 08:53:18;;;;;;;5.40;1.33;;;;;;;25.46;63.40;100798.25;5075507;28;20429;-74
2023/07/16 08:55:46;;;;;;;4.60;1.07;;;;;;;25.57;64.66;100801.78;5075109;28;20520;-73
2023/07/16 08:58:14;;;;;;;5.10;1.40;;;;;;;25.51;61.68;100802.59;5075620;28;20491;-74
2023/07/16 09:00:42;;;;;;;4.83;0.90;;;;;;;25.35;61.88;100803.78;5075369;28;20518;-74
2023/07/16 09:03:09;;;;;;;5.57;1.40;;;;;;;25.26;59.19;100803.38;5075628;28;20528;-74
2023/07/16 09:05:36;;;;;;;4.80;1.30;;;;;;;25.17;60.58;100801.00;5075253;28;20576;-74
2023/07/16 09:08:02;;;;;;;4.70;1.10;;;;;;;25.10;62.72;100803.78;5074409;28;20927;-74
2023/07/16 09:10:30;;;;;;;4.17;0.80;;;;;;;25.10;61.24;100802.97;5074560;28;20488;-74
2023/07/16 09:12:59;;;;;;;4.80;0.90;;;;;;;25.13;63.92;100811.28;5075220;28;20524;-74
2023/07/16 09:15:29;;;;;;;4.53;1.07;;;;;;;25.30;63.60;100818.03;5075194;28;20441;-74
2023/07/16 09:17:56;;;;;;;7.03;1.47;;;;;;;25.50;62.13;100806.53;5075050;28;20441;-76
2023/07/16 09:20:24;;;;;;;11.03;1.33;;;;;;;25.64;58.36;100825.97;5075028;28;20537;-72
2023/07/16 09:22:51;;;;;;;4.30;0.80;;;;;;;25.68;56.67;100821.19;5074634;28;20437;-74
2023/07/16 09:25:17;;;;;;;5.47;1.50;;;;;;;25.75;57.98;100823.16;5076378;28;20485;-73
2023/07/16 09:27:44;;;;;;;5.57;1.23;;;;;;;25.72;56.75;100815.63;5073382;28;20552;-74
2023/07/16 09:30:17;;;;;;;8.50;1.30;;;;;;;25.58;55.56;100806.13;5077712;28;20462;-74
2023/07/16 09:32:43;;;;;;;5.07;1.20;;;;;;;25.62;56.81;100809.69;5059818;28;20490;-75
2023/07/16 09:35:11;;;;;;;5.27;1.20;;;;;;;25.81;58.30;100807.69;5071134;28;20489;-73
2023/07/16 09:37:38;;;;;;;6.93;1.10;;;;;;;25.89;58.50;100810.06;5072780;28;20457;-74
2023/07/16 09:40:08;;;;;;;5.00;1.03;;;;;;;25.99;58.29;100818.78;5078052;28;20536;-73
2023/07/16 09:42:37;;;;;;;5.50;1.30;;;;;;;26.04;56.48;100815.59;5084970;28;21019;-71
2023/07/16 09:45:07;;;;;;;4.90;1.00;;;;;;;26.16;56.16;100824.28;5074043;28;20489;-73
2023/07/16 09:47:35;;;;;;;6.17;1.07;;;;;;;26.08;54.28;100817.16;5072898;28;20477;-72
2023/07/16 09:50:04;;;;;;;4.80;1.03;;;;;;;26.13;55.48;100818.75;5074473;28;20461;-74
2023/07/16 09:52:32;;;;;;;4.67;0.83;;;;;;;26.12;55.62;100823.50;5073002;28;20505;-72
2023/07/16 09:55:02;;;;;;;4.80;1.47;;;;;;;26.09;55.97;100817.97;5071928;28;21054;-73
2023/07/16 09:57:33;;;;;;;5.40;1.47;;;;;;;26.15;56.40;100822.69;5074773;28;20485;-73
2023/07/16 10:00:05;;;;;;;5.60;1.47;;;;;;;26.16;56.81;100817.91;5075997;28;21039;-74
2023/07/16 10:02:35;;;;;;;4.40;1.00;;;;;;;26.19;56.69;100819.91;5076137;28;20480;-73
2023/07/16 10:05:12;;;;;;;4.60;1.10;;;;;;;26.32;56.71;100814.69;5074783;28;20606;-74
2023/07/16 10:07:39;;;;;;;4.57;1.10;;;;;;;26.38;55.23;100813.06;5071991;28;20449;-75
2023/07/16 10:10:09;;;;;;;4.70;1.10;;;;;;;26.48;55.12;100817.06;5067063;28;20450;-74
2023/07/16 10:12:36;;;;;;;5.33;1.40;;;;;;;26.51;55.38;100824.56;5053883;28;20458;-75
2023/07/16 10:15:04;;;;;;;4.60;1.00;;;;;;;26.44;55.96;100821.81;5075457;28;20456;-74
2023/07/16 10:17:32;;;;;;;5.23;1.30;;;;;;;26.49;55.38;100829.75;5070358;28;20451;-74
2023/07/16 10:20:01;;;;;;;4.53;1.10;;;;;;;26.48;55.13;100834.50;5073608;28;20441;-75
2023/07/16 10:22:36;;;;;;;5.20;1.33;;;;;;;26.31;52.59;100819.47;5075364;28;20575;-75
2023/07/16 10:25:04;;;;;;;5.60;1.70;;;;;;;26.31;54.38;100819.47;5072010;28;20492;-74
2023/07/16 10:27:32;;;;;;;4.20;0.73;;;;;;;26.41;54.23;100817.81;5072191;28;20843;-73
2023/07/16 10:30:01;;;;;;;5.73;1.27;;;;;;;26.44;53.06;100821.81;5074100;28;20484;-73
2023/07/16 10:32:29;;;;;;;5.90;1.47;;;;;;;26.59;52.71;100826.09;5073162;28;20473;-74
2023/07/16 10:34:56;;;;;;;4.63;1.13;;;;;;;26.74;55.41;100813.72;5075107;28;20466;-75
2023/07/16 10:37:24;;;;;;;5.20;1.53;;;;;;;26.90;52.84;100821.56;5073478;28;20950;-73
2023/07/16 10:39:53;;;;;;;4.73;1.10;;;;;;;26.90;51.80;100832.69;5076772;28;20544;-73
2023/07/16 10:42:20;;;;;;;4.50;0.93;;;;;;;26.79;53.45;100820.84;5071708;28;20556;-73
2023/07/16 10:44:50;;;;;;;4.40;1.00;;;;;;;26.85;53.88;100819.22;5072990;28;20552;-72
2023/07/16 10:47:22;;;;;;;5.70;1.20;;;;;;;26.88;54.09;100824.75;5073330;28;20429;-73
2023/07/16 10:49:49;;;;;;;5.30;1.23;;;;;;;26.94;54.40;100815.97;5072577;28;20464;-73
2023/07/16 10:52:15;;;;;;;4.90;1.40;;;;;;;27.17;53.30;100821.78;5071887;28;20489;-73
2023/07/16 10:54:43;;;;;;;5.90;1.50;;;;;;;27.37;50.57;100811.69;5073971;28;20467;-74
2023/07/16 10:57:11;;;;;;;4.90;1.37;;;;;;;27.56;51.23;100823.47;5078642;28;20972;-74
2023/07/16 10:59:39;;;;;;;4.90;1.27;;;;;;;27.72;50.83;100823.75;5071386;28;20460;-74
2023/07/16 11:02:09;;;;;;;4.50;1.00;;;;;;;27.82;50.21;100822.03;5072914;28;20462;-73
2023/07/16 11:04:36;;;;;;;5.97;1.40;;;;;;;27.99;48.16;100818.28;5073230;28;20437;-73
2023/07/16 11:07:05;;;;;;;5.33;1.40;;;;;;;28.07;49.50;100825.34;5072419;28;20531;-73
2023/07/16 11:09:33;;;;;;;5.60;1.00;;;;;;;27.90;47.16;100826.34;5076207;28;20550;-73
2023/07/16 11:12:07;;;;;;;4.70;1.17;;;;;;;27.93;47.70;100822.72;5073095;28;20461;-71
2023/07/16 11:14:34;;;;;;;5.97;1.57;;;;;;;27.97;49.38;100817.91;5074849;28;21021;-74
2023/07/16 11:17:05;;;;;;;4.90;1.40;;;;;;;27.66;49.79;100825.34;5073433;28;20499;-73
2023/07/16 11:19:32;;;;;;;4.30;0.93;;;;;;;27.33;49.22;100827.63;5072870;28;20449;-72
2023/07/16 11:21:59;;;;;;;5.57;1.60;;;;;;;27.25;50.37;100837.22;5071583;28;20505;-73
2023/07/16 11:24:27;;;;;;;4.90;1.33;;;;;;;27.23;49.95;100838.84;5072305;28;20454;-73